Tiempo atmosférico en la estación meteorológica de San Fernando, Cádiz (28 m.)



Fecha
DESCASC
Temp. máxima en grados centígrados (hora)
DESCASC
Temp. mínima en grados centígrados (hora)
DESCASC
Temp. media en grados centígrados
DESCASC
Racha de viento máxima en m/sg (hora)
DESCASC
Velocidad máxima media en intervalos de 10 minutos(hora)
DESCASC
Precipitaciones diarias en mm
DESCASC
Precipitaciones de 00:00 a 06:00 en mm
DESCASC
Precipitaciones de 06:00 a 12:00 en mm
DESCASC
Precipitaciones de 12:00 a 18:00 en mm
DESCASC
Precipitaciones de 18:00 a 24:00 en mm
DESCASC
24-09-2020 32 (15:40) 21.4 (08:10) 26.7 6.67 (15:40) 4.17 (16:10) 0 0 0 0 0
23-09-2020 25.2 (18:30) 21.3 (00:00) 23.3 6.67 (01:20) 4.44 (01:20) 0 0 0 0 0
22-09-2020 26.3 (15:20) 19.3 (00:00) 22.8 7.22 (17:10) 4.72 (17:10) 0 0 0 0 0
21-09-2020 28 (14:00) 19.9 (00:00) 23.9 8.33 (22:30) 5 (22:40) 0 0 0 0 0
20-09-2020 24 (13:30) 19.3 (00:00) 21.6 8.33 (15:50) 5.56 (17:10) 0 0 0 0 0
19-09-2020 24.8 (15:40) 21 (00:00) 22.9 10.28 (13:00) 5.28 (14:00) 1.6 0 0 1.6 0
18-09-2020 26 (13:00) 20.8 (00:00) 23.4 13.06 (14:10) 6.94 (14:10) 3.7 0.1 0 3.4 0.2
17-09-2020 28.3 (14:50) 21.9 (00:00) 25.1 10 (12:40) 5.28 (17:40) 0 0 0 0 0
16-09-2020 26.8 (15:50) 21 (00:00) 23.9 7.78 (16:30) 4.72 (18:10) 0.2 0 0 0 0.2
15-09-2020 29.4 (12:30) 21.8 (00:00) 25.6 6.94 (15:10) 4.72 (15:00) 0.7 0 0.7 0 0
14-09-2020 32.7 (14:30) 22.8 (00:00) 27.8 13.33 (01:10) 6.39 (03:30) 0 0 0 0 0
13-09-2020 32.2 (16:30) 24.9 (00:00) 28.6 16.39 (02:30) 8.06 (15:10) 0 0 0 0 0
12-09-2020 35 (15:10) 22.7 (00:00) 28.9 17.5 (17:20) 8.33 (17:20) 0 0 0 0 0
11-09-2020 34.5 (16:50) 21.8 (00:00) 28.1 12.5 (18:40) 6.67 (11:10) 0 0 0 0 0
10-09-2020 32.6 (14:20) 21.5 (00:00) 27 7.5 (16:10) 4.72 (16:10) 0 0 0 0 0
09-09-2020 33.4 (17:30) 22.1 (00:00) 27.8 13.61 (02:00) 6.39 (02:10) 0 0 0 0 0
08-09-2020 31.2 (13:50) 22.8 (00:00) 27 15.56 (18:00) 7.78 (18:30) 0 0 0 0 0
07-09-2020 28.6 (13:50) 22.2 (07:50) 25.4 8.61 (01:20) 4.72 (01:30) 0 0 0 0 0
06-09-2020 33.5 (16:20) 22.6 (00:00) 28.1 13.89 (00:40) 6.94 (00:10) 0 0 0 0 0
05-09-2020 33.5 (16:10) 22.9 (00:00) 28.2 15 (21:50) 7.22 (22:50) 0 0 0 0 0
04-09-2020 31.6 (14:00) 23.3 (00:00) 27.4 16.39 (03:30) 8.89 (12:40) 0 0 0 0 0
03-09-2020 32.3 (15:50) 22.7 (00:00) 27.5 17.5 (17:00) 9.72 (14:30) 0 0 0 0 0
02-09-2020 26 (16:30) 18.4 (00:00) 22.2 8.61 (23:50) 4.72 (23:40) 0 0 0 0 0
01-09-2020 27.8 (11:20) 20.2 (00:00) 24 11.67 (01:00) 5.28 (00:30) 0 0 0 0 0
31-08-2020 31.8 (14:40) 21.8 (00:00) 26.8 15 (11:40) 7.5 (14:30) 0 0 0 0 0
30-08-2020 30.7 (15:40) 18 (00:00) 24.4 9.44 (07:20) 4.17 (14:50) 0 0 0 0 0
29-08-2020 25.5 (00:10) 18.7 (00:00) 22.1 11.39 (04:10) 7.22 (04:30) 0 0 0 0 0
28-08-2020 26.8 (18:10) 21.8 (00:00) 24.3 10.83 (17:20) 6.94 (17:30) 0 0 0 0 0
27-08-2020 31.1 (16:50) 22.9 (00:00) 27 8.33 (14:50) 5.28 (15:00) 0 0 0 0 0
26-08-2020 30.2 (10:50) 21.9 (00:00) 26.1 6.67 (15:20) 4.72 (16:30) 0 0 0 0 0

Gráficas

Temp. máximas Temp. mínimas Temp. medias Precipitaciones Rachas de viento máximas Velocidades máximas media en intervalos de 10 minutos

Datos horarios

Fecha y hora oficial Temperatura (ºC) Velocidad del viento (km/h) Dirección del viento Racha (km/h) Dirección de racha Precipitación (mm) Presión (hPa) Tendencia (hPa) Humedad (%)
2020-09-24 23:00:00 26.7 4 Norte 15 Nordeste 0 1015.5 1.6 51
2020-09-24 22:00:00 27.3 7 Nordeste 18 Nordeste 0 1015 1.2 50
2020-09-24 21:00:00 27.5 3 Norte 19 Norte 0 1014.3 -- 53
2020-09-24 20:00:00 28 4 Norte 19 Oeste 0 1013.9 -- 53
2020-09-24 19:00:00 27.7 13 Noroeste 22 Noroeste 0 1013.8 -- 54
2020-09-24 18:00:00 28.7 13 Noroeste 23 Noroeste 0 1013.5 -- 52
2020-09-24 17:00:00 29.8 12 Oeste 21 Noroeste 0 1013.3 -- 46
2020-09-24 16:00:00 30.7 12 Noroeste 24 Noroeste 0 1013.2 -- 39
2020-09-24 15:00:00 30.8 10 Nordeste 20 Nordeste 0 1013.4 -- 40
2020-09-24 14:00:00 29.9 7 Norte 21 Norte 0 1013.7 -- 45
2020-09-24 13:00:00 28.3 9 Nordeste 19 Nordeste 0 1014 -- 52
2020-09-24 12:00:00 26.4 3 Nordeste 15 Este 0 1014.2 -- 61
2020-09-24 11:00:00 24.2 4 Nordeste 13 Nordeste 0 1013.8 -- 69
2020-09-24 10:00:00 23.1 2 Norte 8 Norte 0 1013 -- 73
2020-09-24 09:00:00 22.1 3 Nordeste 16 Este 0 1012.2 -- 73
2020-09-24 08:00:00 21.6 3 Nordeste 12 Este 0 1011.9 -- 75
2020-09-24 07:00:00 21.7 5 Nordeste 14 Este 0 1011.4 -- 76
2020-09-24 06:00:00 21.7 9 Este 21 Nordeste 0 1011.3 -- 79
2020-09-24 05:00:00 21.8 11 Este 19 Este 0 1011.3 -- 79
2020-09-24 04:00:00 22 4 Nordeste 9 Nordeste 0 1012.2 -- 76
2020-09-24 03:00:00 22.4 2 Nordeste 8 Nordeste 0 1012.9 -- 76
2020-09-24 02:00:00 22.4 3 Este 7 Norte 0 1012.6 -- 74
2020-09-24 01:00:00 23 4 Norte 12 Norte 0 1012.9 -- 73
2020-09-24 00:00:00 23.4 3 Norte 10 Norte 0 1013 -- 72
2020-09-23 23:00:00 23.9 8 Noroeste 17 Noroeste 0 1012.7 -- 71
2020-09-23 22:00:00 23.8 5 Noroeste 10 Noroeste 0 1012.3 -- 71
2020-09-23 21:00:00 23.9 5 Noroeste 10 Oeste 0 1012.1 -- 71
2020-09-23 20:00:00 24.4 5 Noroeste 14 Noroeste 0 1012.1 -- 63
2020-09-23 19:00:00 25 9 Noroeste 19 Noroeste 0 1011.9 -- 63
2020-09-23 18:00:00 24.5 9 Noroeste 21 Noroeste 0 1011.7 -- 66
2020-09-23 17:00:00 24.6 13 Noroeste 21 Noroeste 0 1011.8 -- 68
2020-09-23 16:00:00 24.3 12 Oeste 20 Oeste 0 1012.2 -- 68
2020-09-23 15:00:00 24.5 12 Oeste 20 Norte 0 1012.7 -- 67
2020-09-23 14:00:00 23.8 11 Oeste 19 Oeste 0 1013.1 -- 70
2020-09-23 13:00:00 23.9 9 Noroeste 17 Noroeste 0 1013.5 -- 67
2020-09-23 12:00:00 23.8 6 Noroeste 15 Norte 0 1013.3 -- 70
2020-09-23 11:00:00 22.8 5 Oeste 12 Noroeste 0 1013 -- 75
2020-09-23 10:00:00 22.3 6 Noroeste 14 Noroeste 0 1012.6 -- 78
2020-09-23 09:00:00 21.3 7 Oeste 13 Oeste 0 1012.1 -- 84
2020-09-23 08:00:00 21.5 2 Oeste 11 Sudoeste 0 1011.7 -- 84
2020-09-23 07:00:00 21.6 2 Este 9 Noroeste 0 1011.1 -- 81
2020-09-23 06:00:00 21.6 6 Noroeste 19 Oeste 0 1011.9 -- 83
2020-09-23 05:00:00 21.4 13 Oeste 24 Sudoeste 0 1012.3 -- 84
2020-09-23 04:00:00 21.5 12 Oeste 21 Oeste 0 1012.4 -- 82
2020-09-23 03:00:00 21.5 12 Oeste 20 Oeste 0 1012.5 -- 82
2020-09-23 02:00:00 21.6 12 Oeste 24 Oeste 0 1012.4 -- 81
2020-09-23 01:00:00 22.1 13 Oeste 22 Oeste 0 1013 -- 80
2020-09-23 00:00:00 22.4 13 Oeste 22 Oeste 0 1013.2 -- 79
2020-09-22 23:00:00 22.8 13 Oeste 22 Noroeste 0 1013.2 -- 73
2020-09-22 22:00:00 22.9 12 Oeste 19 Oeste 0 1012.8 -- 71
2020-09-22 21:00:00 22.9 9 Oeste 22 Oeste 0 1012.1 -- 74
2020-09-22 20:00:00 23.1 13 Oeste 18 Oeste 0 1011.7 -- 70
2020-09-22 19:00:00 23.7 9 Oeste 20 Oeste 0 1011.6 -- 64
2020-09-22 18:00:00 24.6 14 Oeste 26 Oeste 0 1011.8 -- 61
2020-09-22 17:00:00 25.5 15 Oeste 25 Oeste 0 1012.2 -- 60
2020-09-22 16:00:00 25.4 12 Oeste 19 Noroeste 0 1012.4 -- 61
2020-09-22 15:00:00 25.9 10 Oeste 20 Oeste 0 1012.9 -- 59
2020-09-22 14:00:00 25.8 10 Oeste 17 Noroeste 0 1013.4 -- 58
2020-09-22 13:00:00 25.9 6 Noroeste 11 Noroeste 0 1013.6 -- 54
2020-09-22 12:00:00 24.5 3 Norte 9 Norte 0 1013.5 -- 61
2020-09-22 11:00:00 21.8 3 Norte 7 Norte 0 1013.3 -- 71
2020-09-22 10:00:00 20.4 2 Nordeste 11 Nordeste 0 1012.9 -- 74
2020-09-22 09:00:00 19.5 6 Nordeste 12 Nordeste 0 1012.4 -- 77
2020-09-22 08:00:00 19.6 4 Nordeste 12 Nordeste 0 1012.1 -- 75
2020-09-22 07:00:00 20.1 2 Norte 10 Nordeste 0 1011.9 -- 71
2020-09-22 06:00:00 20.4 5 Norte 9 Norte 0 1011.9 -- 79
2020-09-22 05:00:00 21.4 4 Norte 6 Norte 0 1012 -- 82
2020-09-22 04:00:00 21.4 0 Calma 3 Este 0 1012.4 -- 82
2020-09-22 03:00:00 21.5 2 Sudeste 5 Sudeste 0 1012.8 -- 81
2020-09-22 02:00:00 22.6 0 Calma 10 Norte 0 1013.1 -- 75
2020-09-22 01:00:00 22.9 7 Noroeste 19 Noroeste 0 1013.4 -- 71
2020-09-22 00:00:00 22.7 12 Noroeste 23 Noroeste 0 1014 -- 75
2020-09-21 23:00:00 23 17 Noroeste 30 Noroeste 0 1013.8 -- 74
2020-09-21 22:00:00 23.3 15 Noroeste 26 Noroeste 0 1013.5 -- 72
2020-09-21 21:00:00 23.7 13 Oeste 23 Noroeste 0 1013 -- 68
2020-09-21 20:00:00 24.2 12 Oeste 22 Noroeste 0 1012.9 -- 64
2020-09-21 19:00:00 24.8 17 Noroeste 26 Noroeste 0 1012.9 -- 62
2020-09-21 18:00:00 25.2 15 Oeste 28 Noroeste 0 1013 -- 63
2020-09-21 17:00:00 24.9 15 Oeste 27 Noroeste 0 1013.3 -- 68
2020-09-21 16:00:00 25.6 15 Oeste 27 Oeste 0 1013.6 -- 68
2020-09-21 15:00:00 25.1 15 Oeste 25 Oeste 0 1014 -- 68
2020-09-21 14:00:00 27.7 10 Oeste 20 Oeste 0 1014.3 -- 52
2020-09-21 13:00:00 26.2 6 Norte 14 Norte 0 1014.6 -- 57
2020-09-21 12:00:00 23.9 7 Nordeste 15 Norte 0 1014.8 -- 66
2020-09-21 11:00:00 22.1 3 Norte 13 Nordeste 0 1014.8 -- 79
2020-09-21 10:00:00 20.5 6 Nordeste 13 Norte 0 1014.4 -- 87
2020-09-21 09:00:00 20.1 3 Nordeste 9 Noroeste 0 1014.1 -- 90
2020-09-21 08:00:00 20.3 3 Norte 8 Norte 0 1013.9 -- 90
2020-09-21 07:00:00 20.3 0 Calma 6 Norte 0 1013.7 -- 89
2020-09-21 06:00:00 20.4 0 Calma 4 Norte 0 1013.5 -- 86
2020-09-21 05:00:00 20.5 0 Calma 6 Este 0 1013.6 -- 85
2020-09-21 04:00:00 20.5 5 Este 8 Este 0 1014 -- 85
2020-09-21 03:00:00 20.6 4 Este 9 Este 0 1014.4 -- 85
2020-09-21 02:00:00 21.3 3 Este 12 Noroeste 0 1014.6 -- 85
2020-09-21 01:00:00 22.3 8 Noroeste 17 Noroeste 0 1015.1 -- 83
2020-09-21 00:00:00 22.5 8 Noroeste 22 Noroeste 0 1015.3 -- 79
2020-09-20 23:00:00 22.3 13 Noroeste 23 Noroeste 0 1015.4 -- 77
2020-09-20 22:00:00 22.2 11 Noroeste 22 Noroeste 0 1015.2 -- 78
2020-09-20 21:00:00 22.2 13 Noroeste 22 Noroeste 0 1014.7 -- 77
2020-09-20 20:00:00 22.4 12 Noroeste 22 Oeste 0 1014.6 -- 72
2020-09-20 19:00:00 23 14 Oeste 24 Noroeste 0 1014.5 -- 71
2020-09-20 18:00:00 23.7 14 Noroeste 30 Noroeste 0 1014.6 -- 71
2020-09-20 17:00:00 23.6 18 Oeste 29 Noroeste 0 1014.8 -- 71
2020-09-20 16:00:00 23.4 18 Noroeste 30 Noroeste 0 1015.1 -- 71
2020-09-20 15:00:00 23 16 Oeste 26 Noroeste 0 1015.8 -- 71
2020-09-20 14:00:00 23.3 15 Oeste 25 Oeste 0 1016.5 -- 69
2020-09-20 13:00:00 23.5 10 Noroeste 18 Noroeste 0 1016.6 -- 67
2020-09-20 12:00:00 23.1 3 Noroeste 11 Nordeste 0 1016.8 -- 70
2020-09-20 11:00:00 21.9 5 Norte 11 Norte 0 1016.5 -- 76
2020-09-20 10:00:00 20.9 3 Norte 12 Nordeste 0 1016.2 -- 81
2020-09-20 09:00:00 19.6 4 Nordeste 8 Nordeste 0 1015.9 -- 86
2020-09-20 08:00:00 19.4 2 Norte 7 Nordeste 0 1015.8 -- 89
2020-09-20 07:00:00 19.5 2 Este 5 Sudeste 0 1015.8 -- 90
2020-09-20 06:00:00 19.7 0 Calma 5 Oeste 0 1015.7 -- 90
2020-09-20 05:00:00 19.6 3 Sudeste 7 Este 0 1015.5 -- 90
2020-09-20 04:00:00 20.1 4 Este 11 Este 0 1016 -- 87
2020-09-20 03:00:00 21.5 6 Noroeste 14 Oeste 0 1016.4 -- 87
2020-09-20 02:00:00 21.1 7 Oeste 14 Oeste 0 1016.5 -- 85
2020-09-20 01:00:00 20.9 8 Oeste 14 Oeste 0 1016.6 -- 84
2020-09-20 00:00:00 21 9 Oeste 18 Oeste 0 1016.7 -- 82
2020-09-19 23:00:00 21.5 11 Oeste 19 Oeste 0 1016.4 -- 80
2020-09-19 22:00:00 21.4 12 Oeste 21 Oeste 0 1016.1 -- 80
2020-09-19 21:00:00 21.8 12 Oeste 23 Oeste 0 1015.3 -- 80
2020-09-19 20:00:00 22.6 13 Oeste 24 Oeste 0 1015.1 -- 75
2020-09-19 19:00:00 23.2 13 Oeste 21 Oeste 0 1014.8 -- 70
2020-09-19 18:00:00 23.5 12 Oeste 21 Oeste 0 1014.5 -- 71
2020-09-19 17:00:00 24.1 12 Oeste 25 Oeste 0 1014.6 -- 74
2020-09-19 16:00:00 23.9 16 Oeste 32 Oeste 0 1014.9 -- 73
2020-09-19 15:00:00 24.6 18 Sudoeste 31 Oeste 0 1015.2 -- 75
2020-09-19 14:00:00 23.2 19 Oeste 33 Sudoeste 0 1015.6 -- 76
2020-09-19 13:00:00 22.1 19 Oeste 37 Oeste 1.6 1015.8 -- 85
2020-09-19 12:00:00 24.5 16 Sudoeste 34 Sudoeste 0 1015.5 -- 71
2020-09-19 11:00:00 23.6 12 Sudoeste 26 Sudoeste 0 1015.1 -- 76
2020-09-19 10:00:00 23 9 Sudoeste 22 Sudoeste 0 1014.7 -- 79
2020-09-19 09:00:00 22.3 12 Sudoeste 21 Sudoeste 0 1014.2 -- 79
2020-09-19 08:00:00 21.3 5 Sudoeste 18 Sudoeste 0 1013.7 -- 84
2020-09-19 07:00:00 21.7 12 Sudoeste 24 Oeste 0 1013.3 -- 81
2020-09-19 06:00:00 21.7 9 Sudoeste 19 Sudoeste 0 1013.3 -- 77
2020-09-19 05:00:00 21.6 9 Sudoeste 21 Sudoeste 0 1013.2 -- 78
2020-09-19 04:00:00 21.7 9 Sudoeste 24 Sudoeste 0 1013.3 -- 77
2020-09-19 03:00:00 21.9 13 Sudoeste 24 Sudoeste 0 1013.6 -- 77
2020-09-19 02:00:00 21.8 12 Sudoeste 24 Sudoeste 0 1013.7 -- 77
2020-09-19 01:00:00 21.8 12 Sudoeste 26 Sudoeste 0 1013.7 -- 77
2020-09-19 00:00:00 22 15 Sudoeste 31 Sudoeste 0 1013.7 -- 75
2020-09-18 23:00:00 22.1 13 Sudoeste 27 Sudoeste 0 1013.7 -- 78
2020-09-18 22:00:00 21.6 14 Sudoeste 38 Oeste 0.2 1012.8 -- 77
2020-09-18 21:00:00 22.9 14 Sudoeste 31 Sudoeste 0 1012 -- 74
2020-09-18 20:00:00 23.8 17 Sudoeste 34 Sudoeste 0 1011.6 -- 72
2020-09-18 19:00:00 24.3 18 Sudoeste 37 Sudoeste 0 1010.8 -- 67
2020-09-18 18:00:00 24.5 17 Sudoeste 43 Sudoeste 0 1010.8 -- 69
2020-09-18 17:00:00 25.1 17 Sudoeste 38 Sur 0 1010.5 -- 71
2020-09-18 16:00:00 25.1 14 Sudoeste 40 Sur 0 1010.5 -- 75
2020-09-18 15:00:00 24 12 Sudoeste 47 Sur 3.4 1010.4 -- 84
2020-09-18 14:00:00 25.3 20 Sur 47 Sur 0 1010 -- 71
2020-09-18 13:00:00 25.6 24 Sur 46 Sudoeste 0 1009.6 -- 67
2020-09-18 12:00:00 25.6 18 Sur 44 Sudeste 0 1009.2 -- 67
2020-09-18 11:00:00 25.2 17 Sur 37 Sur 0 1008.9 -- 65
2020-09-18 10:00:00 24.1 7 Sudeste 21 Sudeste 0 1008 -- 74
2020-09-18 09:00:00 21.6 11 Sudeste 22 Sudeste 0 1007.7 -- 82
2020-09-18 08:00:00 21.5 5 Sudeste 19 Sudeste 0 1007.9 -- 83
2020-09-18 07:00:00 21.4 10 Sudeste 22 Sudeste 0 1007.9 -- 87
2020-09-18 06:00:00 22.2 5 Sudeste 37 Sur 0.1 1007.7 -- 88
2020-09-18 05:00:00 21.4 14 Sur 35 Sur 0 1008.1 -- 87
2020-09-18 04:00:00 22.3 9 Sur 28 Sudoeste 0 1008.8 -- 89
2020-09-18 03:00:00 22.9 13 Sur 30 Sur 0 1008.9 -- 88
2020-09-18 02:00:00 23 13 Sur 33 Sur 0 1009 -- 86
2020-09-18 01:00:00 23.2 17 Sur 36 Sur 0 1008.9 -- 82
2020-09-18 00:00:00 23.1 9 Sur 31 Sur 0 1008.9 -- 78
2020-09-17 23:00:00 22.9 11 Sur 24 Sur 0 1009.4 -- 83
2020-09-17 22:00:00 22.7 5 Sur 21 Sur 0 1009 -- 87
2020-09-17 21:00:00 23.2 7 Sur 27 Sur 0 1008.6 -- 87
2020-09-17 20:00:00 23.6 9 Sudoeste 26 Sur 0 1008.4 -- 86
2020-09-17 19:00:00 23.9 14 Sudoeste 30 Sudoeste 0 1008.4 -- 85
2020-09-17 18:00:00 24.2 14 Sudoeste 32 Sudoeste 0 1008.3 -- 82
2020-09-17 17:00:00 25.6 13 Sudoeste 28 Sur 0 1008.2 -- 74
2020-09-17 16:00:00 27 14 Sur 32 Sur 0 1008.5 -- 68
2020-09-17 15:00:00 28 14 Sur 33 Sudoeste 0 1008.6 -- 58
2020-09-17 14:00:00 27.1 17 Sur 31 Sur 0 1009.1 -- 58
2020-09-17 13:00:00 26.3 17 Sur 36 Sudoeste 0 1009.6 -- 61
2020-09-17 12:00:00 25.8 15 Sur 30 Sudoeste 0 1010 -- 66
2020-09-17 11:00:00 24.6 14 Sur 26 Sur 0 1010.1 -- 72
2020-09-17 10:00:00 23.8 11 Sur 24 Sudoeste 0 1010 -- 77
2020-09-17 09:00:00 22.3 9 Sudoeste 17 Sudoeste 0 1009.8 -- 90
2020-09-17 08:00:00 22.3 7 Sudoeste 12 Sudoeste 0 1009.4 -- 90
2020-09-17 07:00:00 22 4 Sur 13 Sur 0 1008.9 -- 88
2020-09-17 06:00:00 22.1 4 Sur 15 Sudeste 0 1009.2 -- 88
2020-09-17 05:00:00 22.1 4 Sudeste 12 Sur 0 1009.7 -- 89
2020-09-17 04:00:00 22.3 5 Sur 14 Sur 0 1010.3 -- 89
2020-09-17 03:00:00 22.3 3 Sur 15 Sur 0 1010.9 -- 90
2020-09-17 02:00:00 22.3 5 Este 14 Sur 0 1011.4 -- 92
2020-09-17 01:00:00 22.4 3 Sudoeste 8 Oeste 0 1012.1 -- 93
2020-09-17 00:00:00 22.5 3 Noroeste 9 Oeste 0 1011.7 -- 93
2020-09-16 23:00:00 22.9 8 Oeste 13 Oeste 0 1011.8 -- 92
2020-09-16 22:00:00 23 3 Sudoeste 11 Norte 0 1011.7 -- 91
2020-09-16 21:00:00 23.1 2 Nordeste 10 Sur 0.1 1011 -- 91
2020-09-16 20:00:00 23.4 2 Sur 23 Oeste 0.1 1011.5 -- 90
2020-09-16 19:00:00 23.7 12 Oeste 27 Oeste 0 1012 -- 86
2020-09-16 18:00:00 23.7 14 Oeste 26 Oeste 0 1011.9 -- 85
2020-09-16 17:00:00 24.4 13 Sudoeste 28 Sudoeste 0 1011.5 -- 81
2020-09-16 16:00:00 26 8 Sudoeste 24 Sudoeste 0 1011.8 -- 73
2020-09-16 15:00:00 26.2 9 Sudoeste 24 Sur 0 1012.4 -- 72
2020-09-16 14:00:00 25.3 12 Sur 25 Sur 0 1013.2 -- 78
2020-09-16 13:00:00 25.1 9 Sudoeste 21 Sudoeste 0 1013.9 -- 78
2020-09-16 12:00:00 26.1 4 Sudoeste 15 Sudeste 0 1014.4 -- 70
2020-09-16 11:00:00 25.6 7 Este 16 Este 0 1014.3 -- 73
2020-09-16 10:00:00 23.7 2 Este 13 Este 0 1014.5 -- 84
2020-09-16 09:00:00 21.6 7 Este 12 Este 0 1014.3 -- 88
2020-09-16 08:00:00 21.1 6 Este 11 Este 0 1014.1 -- 89
2020-09-16 07:00:00 21.2 8 Este 15 Sudeste 0 1014.3 -- 88
2020-09-16 06:00:00 21.5 7 Este 12 Este 0 1014.5 -- 86
2020-09-16 05:00:00 21.5 6 Sudeste 12 Sudeste 0 1015.1 -- 81
2020-09-16 04:00:00 21.7 7 Sudeste 12 Este 0 1015.5 -- 82
2020-09-16 03:00:00 22.1 4 Este 7 Este 0 1016 -- 83
2020-09-16 02:00:00 22.7 3 Noroeste 7 Noroeste 0 1016.3 -- 80
2020-09-16 01:00:00 22.8 2 Norte 11 Noroeste 0 1016.2 -- 79
2020-09-16 00:00:00 22.8 9 Noroeste 14 Oeste 0 1016.4 -- 82
2020-09-15 23:00:00 23.5 0 Calma 8 Noroeste 0 1016.4 -- 76
2020-09-15 22:00:00 23.6 4 Oeste 12 Noroeste 0 1015.9 -- 77
2020-09-15 21:00:00 24.1 9 Noroeste 14 Noroeste 0 1015 -- 76
2020-09-15 20:00:00 24.4 11 Noroeste 23 Noroeste 0 1014.8 -- 77
2020-09-15 19:00:00 25 14 Oeste 24 Oeste 0 1015 -- 76
2020-09-15 18:00:00 25.6 14 Oeste 22 Noroeste 0 1015 -- 74
2020-09-15 17:00:00 25.2 16 Oeste 23 Noroeste 0 1015.5 -- 75
2020-09-15 16:00:00 25.6 13 Oeste 25 Oeste 0 1016 -- 76
2020-09-15 15:00:00 25.9 17 Oeste 25 Oeste 0 1016.8 -- 72
2020-09-15 14:00:00 26.3 15 Oeste 23 Oeste 0 1017.4 -- 67
2020-09-15 13:00:00 26.9 10 Oeste 17 Noroeste 0 1017.7 -- 60
2020-09-15 12:00:00 28.4 8 Este 18 Este 0.7 1018 -- 57
2020-09-15 11:00:00 26.2 7 Este 16 Este 0 1017.9 -- 65
2020-09-15 10:00:00 23.7 9 Este 15 Nordeste 0 1017.6 -- 78
2020-09-15 09:00:00 22 8 Este 15 Este 0 1017.1 -- 83
2020-09-15 08:00:00 22.3 8 Este 12 Este 0 1016.7 -- 82
2020-09-15 07:00:00 22 3 Este 14 Este 0 1016.4 -- 83
2020-09-15 06:00:00 22.9 2 Nordeste 9 Norte 0 1016.3 -- 85
2020-09-15 05:00:00 23.2 6 Noroeste 10 Noroeste 0 1016.8 -- 82
2020-09-15 04:00:00 23 6 Noroeste 14 Noroeste 0 1017.1 -- 83
2020-09-15 03:00:00 23.1 3 Norte 14 Noroeste 0 1017.2 -- 84
2020-09-15 02:00:00 23.1 6 Noroeste 11 Norte 0 1017.5 -- 83
2020-09-15 01:00:00 23 6 Noroeste 13 Noroeste 0 1017.5 -- 85
2020-09-15 00:00:00 22.8 6 Noroeste 15 Noroeste 0 1017.2 -- 88
2020-09-14 23:00:00 23.2 8 Oeste 12 Noroeste 0 1017 -- 89
2020-09-14 22:00:00 23.4 6 Oeste 16 Noroeste 0 1016 -- 90
2020-09-14 21:00:00 24.5 8 Oeste 30 Oeste 0 1015.6 -- 85
2020-09-14 20:00:00 25.1 18 Oeste 27 Oeste 0 1015.3 -- 83
2020-09-14 19:00:00 26.2 19 Oeste 35 Oeste 0 1014.8 -- 76
2020-09-14 18:00:00 30.3 13 Sur 33 Sudoeste 0 1014.1 -- 61
2020-09-14 17:00:00 30.7 14 Sur 34 Sudoeste 0 1014.4 -- 60
2020-09-14 16:00:00 31.1 16 Sur 35 Sur 0 1015.1 -- 59
2020-09-14 15:00:00 31.1 14 Sur 29 Sur 0 1015.7 -- 57
2020-09-14 14:00:00 32 13 Sudeste 37 Sudeste 0 1015.9 -- 52
2020-09-14 13:00:00 30.5 14 Sudeste 41 Sudeste 0 1016.3 -- 56
2020-09-14 12:00:00 29.1 16 Este 38 Sudeste 0 1016.3 -- 60
2020-09-14 11:00:00 27.5 16 Este 31 Sudeste 0 1015.7 -- 65
2020-09-14 10:00:00 25.3 7 Sudeste 14 Sudeste 0 1015.4 -- 71
2020-09-14 09:00:00 24.7 2 Sur 20 Sudeste 0 1015.1 -- 71
2020-09-14 08:00:00 24.7 9 Sudeste 30 Sudeste 0 1014.6 -- 70
2020-09-14 07:00:00 24.5 8 Sudeste 23 Sudeste 0 1014.3 -- 70
2020-09-14 06:00:00 24.6 10 Sudeste 32 Este 0 1014 -- 69
2020-09-14 05:00:00 24.9 18 Sudeste 43 Este 0 1014 -- 67
2020-09-14 04:00:00 25.6 23 Sudeste 46 Sudeste 0 1014.4 -- 62
2020-09-14 03:00:00 25.9 20 Sudeste 46 Sudeste 0 1014.7 -- 62
2020-09-14 02:00:00 25.6 19 Sudeste 48 Sudeste 0 1014.7 -- 63
2020-09-14 01:00:00 25.6 21 Sudeste 44 Sudeste 0 1014.2 -- 62
2020-09-14 00:00:00 25.4 21 Este 43 Sudeste 0 1014.7 -- 62
2020-09-13 23:00:00 25.7 18 Sudeste 36 Sudeste 0 1015 -- 59
2020-09-13 22:00:00 26.2 12 Sudeste 53 Sudeste 0 1014.7 -- 56
2020-09-13 21:00:00 27.2 22 Este 57 Sudeste 0 1013.8 -- 49
2020-09-13 20:00:00 28.5 23 Sudeste 47 Sudeste 0 1013.5 -- 46
2020-09-13 19:00:00 30.1 19 Este 48 Sudeste 0 1013.4 -- 44
2020-09-13 18:00:00 30.6 22 Sudeste 53 Sudeste 0 1013.5 -- 44
2020-09-13 17:00:00 31.5 21 Sudeste 45 Sudeste 0 1013.8 -- 44
2020-09-13 16:00:00 31.5 23 Sudeste 59 Sudeste 0 1013.8 -- 45
2020-09-13 15:00:00 31.4 26 Este 57 Este 0 1014.2 -- 45
2020-09-13 14:00:00 31.6 22 Este 52 Sudeste 0 1014.7 -- 46
2020-09-13 13:00:00 31 23 Este 46 Sudeste 0 1014.7 -- 49
2020-09-13 12:00:00 29.9 19 Este 46 Este 0 1014.8 -- 52
2020-09-13 11:00:00 28.4 19 Sudeste 37 Sudeste 0 1014.5 -- 55
2020-09-13 10:00:00 26.7 15 Sudeste 33 Sudeste 0 1013.8 -- 56
2020-09-13 09:00:00 25.3 12 Sudeste 28 Sudeste 0 1013.2 -- 61
2020-09-13 08:00:00 25.1 15 Este 31 Sudeste 0 1012.8 -- 64
2020-09-13 07:00:00 25.1 12 Sudeste 28 Sudeste 0 1012.6 -- 65
2020-09-13 06:00:00 25.2 10 Sudeste 28 Sur 0 1012.8 -- 64
2020-09-13 05:00:00 25.2 10 Sudeste 43 Sudeste 0 1012.5 -- 62
2020-09-13 04:00:00 26 21 Sudeste 53 Sudeste 0 1011.7 -- 59
2020-09-13 03:00:00 25.9 23 Sudeste 59 Sudeste 0 1011.4 -- 59
2020-09-13 02:00:00 26.1 22 Este 55 Sudeste 0 1011.7 -- 58
2020-09-13 01:00:00 26.1 21 Sudeste 49 Sudeste 0 1011.9 -- 57
2020-09-13 00:00:00 26.2 20 Este 39 Sudeste 0 1011.7 -- 54
2020-09-12 23:00:00 26.6 16 Este 43 Sudeste 0 1011.9 -- 49
2020-09-12 22:00:00 26.9 18 Este 33 Este 0 1011.1 -- 47
2020-09-12 21:00:00 27.6 17 Este 37 Sudeste 0 1010.4 -- 44
2020-09-12 20:00:00 28.8 22 Este 42 Este 0 1010 -- 40
2020-09-12 19:00:00 30.3 23 Este 54 Sudeste 0 1009.6 -- 37
2020-09-12 18:00:00 31 28 Este 63 Este 0 1009.4 -- 34
2020-09-12 17:00:00 31.7 24 Este 55 Este 0 1009.5 -- 34
2020-09-12 16:00:00 33.2 26 Este 52 Este 0 1009.7 -- 33
2020-09-12 15:00:00 34.8 18 Este 45 Este 0 1010 -- 32
2020-09-12 14:00:00 34.1 18 Este 48 Sudeste 0 1010.4 -- 34
2020-09-12 13:00:00 32.9 18 Sudeste 39 Nordeste 0 1010.9 -- 36
2020-09-12 12:00:00 31.5 14 Sudeste 34 Este 0 1010.8 -- 42
2020-09-12 11:00:00 29.6 12 Este 27 Este 0 1010.4 -- 48
2020-09-12 10:00:00 25.9 5 Este 14 Este 0 1010.3 -- 52
2020-09-12 09:00:00 23.4 9 Este 14 Este 0 1009.7 -- 54
2020-09-12 08:00:00 22.8 6 Este 11 Este 0 1009.2 -- 53
2020-09-12 07:00:00 22.8 7 Este 18 Este 0 1008.8 -- 53
2020-09-12 06:00:00 23.3 9 Este 22 Este 0 1008.8 -- 55
2020-09-12 05:00:00 22.8 6 Este 13 Este 0 1008.9 -- 65
2020-09-12 04:00:00 22.9 5 Este 16 Este 0 1009 -- 66
2020-09-12 03:00:00 23.1 8 Este 15 Nordeste 0 1009.3 -- 66
2020-09-12 02:00:00 23.6 2 Este 9 Este 0 1009.5 -- 65
2020-09-12 01:00:00 24.2 7 Este 22 Este 0 1009.5 -- 57
2020-09-12 00:00:00 24.7 9 Este 23 Este 0 1009.4 -- 58
2020-09-11 23:00:00 25.4 9 Este 22 Este 0 1009 -- 55
2020-09-11 22:00:00 23.8 2 Nordeste 10 Este 0 1008.7 -- 74
2020-09-11 21:00:00 24.6 6 Oeste 18 Oeste 0 1008.1 -- 76
2020-09-11 20:00:00 27.2 6 Oeste 40 Sudeste 0 1008 -- 58
2020-09-11 19:00:00 31.9 19 Este 45 Sudeste 0 1007.7 -- 32
2020-09-11 18:00:00 32.8 21 Este 40 Sudeste 0 1007.6 -- 31
2020-09-11 17:00:00 33.3 18 Este 41 Este 0 1008 -- 33
2020-09-11 16:00:00 33.8 13 Este 37 Este 0 1008.6 -- 34
2020-09-11 15:00:00 33 15 Este 30 Este 0 1009.1 -- 36
2020-09-11 14:00:00 32.4 13 Este 33 Sudeste 0 1009.7 -- 36
2020-09-11 13:00:00 32.2 18 Este 38 Este 0 1009.9 -- 36
2020-09-11 12:00:00 29.9 19 Este 43 Este 0 1010.5 -- 39
2020-09-11 11:00:00 27.3 21 Este 40 Este 0 1010 -- 45
2020-09-11 10:00:00 24.5 15 Este 33 Sudeste 0 1010 -- 55
2020-09-11 09:00:00 22.9 15 Este 29 Este 0 1009.7 -- 56
2020-09-11 08:00:00 22.4 15 Este 27 Sudeste 0 1009.3 -- 55
2020-09-11 07:00:00 22.6 10 Sudeste 22 Este 0 1009.1 -- 55
2020-09-11 06:00:00 22.7 13 Este 22 Sudeste 0 1009.3 -- 55
2020-09-11 05:00:00 22 10 Sudeste 22 Sudeste 0 1009.6 -- 56
2020-09-11 04:00:00 22 10 Este 20 Sudeste 0 1010 -- 55
2020-09-11 03:00:00 22.6 9 Este 16 Sudeste 0 1010.6 -- 53
2020-09-11 02:00:00 23.3 9 Este 17 Este 0 1011.1 -- 51
2020-09-11 01:00:00 23.3 10 Este 15 Este 0 1011.3 -- 66
2020-09-11 00:00:00 22.9 0 Calma 8 Sudeste 0 1011.8 -- 80
2020-09-10 23:00:00 23.5 0 Calma 6 Sudoeste 0 1011.9 -- 77
2020-09-10 22:00:00 23.8 3 Sudoeste 12 Oeste 0 1011.4 -- 77
2020-09-10 21:00:00 24.4 8 Oeste 14 Sudoeste 0 1010.8 -- 71
2020-09-10 20:00:00 25.5 8 Sudoeste 18 Sudoeste 0 1010.9 -- 66
2020-09-10 19:00:00 25.9 12 Oeste 23 Oeste 0 1011 -- 62
2020-09-10 18:00:00 26.2 14 Oeste 25 Oeste 0 1011.2 -- 63
2020-09-10 17:00:00 27 15 Oeste 27 Oeste 0 1011.6 -- 57
2020-09-10 16:00:00 26.7 16 Sudoeste 27 Sudoeste 0 1012.3 -- 57
2020-09-10 15:00:00 29.2 14 Oeste 21 Oeste 0 1012.9 -- 48
2020-09-10 14:00:00 31.9 4 Este 17 Noroeste 0 1013.4 -- 34
2020-09-10 13:00:00 29.8 5 Norte 16 Nordeste 0 1014.4 -- 37
2020-09-10 12:00:00 30.6 10 Este 24 Este 0 1015 -- 38
2020-09-10 11:00:00 28.6 14 Este 26 Este 0 1015.2 -- 42
2020-09-10 10:00:00 25.7 9 Este 17 Este 0 1014.7 -- 49
2020-09-10 09:00:00 22.2 8 Este 22 Sudeste 0 1014.4 -- 57
2020-09-10 08:00:00 21.9 12 Este 23 Sudeste 0 1013.9 -- 57
2020-09-10 07:00:00 21.6 11 Este 21 Este 0 1013.7 -- 59
2020-09-10 06:00:00 21.7 9 Este 22 Sudeste 0 1013.8 -- 63
2020-09-10 05:00:00 21.8 8 Este 22 Este 0 1014.2 -- 67
2020-09-10 04:00:00 22.1 12 Este 20 Sudeste 0 1014.6 -- 65
2020-09-10 03:00:00 22.5 5 Este 13 Este 0 1015.1 -- 65
2020-09-10 02:00:00 22.9 5 Este 20 Este 0 1015.4 -- 65
2020-09-10 01:00:00 23.3 13 Este 23 Sudeste 0 1015.5 -- 59
2020-09-10 00:00:00 23.7 12 Este 23 Sudeste 0 1015.5 -- 56
2020-09-09 23:00:00 24.3 10 Este 25 Sudeste 0 1015.3 -- 53
2020-09-09 22:00:00 25.5 12 Este 24 Sudeste 0 1014.8 -- 50
2020-09-09 21:00:00 27.1 8 Este 13 Sudeste 0 1014.1 -- 50
2020-09-09 20:00:00 28.5 5 Oeste 10 Noroeste 0 1013.5 -- 49
2020-09-09 19:00:00 29.2 4 Noroeste 15 Noroeste 0 1013.5 -- 46
2020-09-09 18:00:00 30.4 9 Noroeste 30 Sudeste 0 1013.6 -- 41
2020-09-09 17:00:00 32.2 13 Este 28 Sudeste 0 1013.9 -- 34
2020-09-09 16:00:00 32.2 12 Este 30 Este 0 1014.4 -- 36
2020-09-09 15:00:00 31.8 15 Este 31 Este 0 1014.8 -- 37
2020-09-09 14:00:00 31.4 16 Este 37 Este 0 1015.3 -- 37
2020-09-09 13:00:00 30.2 17 Este 38 Este 0 1015.7 -- 40
2020-09-09 12:00:00 29 19 Este 48 Este 0 1015.9 -- 43
2020-09-09 11:00:00 27 20 Este 44 Este 0 1016 -- 51
2020-09-09 10:00:00 24.7 19 Este 45 Este 0 1015.4 -- 63
2020-09-09 09:00:00 22.8 17 Este 34 Este 0 1015 -- 71
2020-09-09 08:00:00 22.2 18 Este 34 Sudeste 0 1014.4 -- 72
2020-09-09 07:00:00 22.3 17 Este 38 Este 0 1014.1 -- 71
2020-09-09 06:00:00 22.5 20 Este 46 Este 0 1013.9 -- 71
2020-09-09 05:00:00 22.7 21 Este 39 Este 0 1014 -- 70
2020-09-09 04:00:00 23 19 Este 41 Sudeste 0 1014 -- 67
2020-09-09 03:00:00 23.2 21 Este 45 Este 0 1014 -- 65
2020-09-09 02:00:00 23.6 23 Este 49 Este 0 1013.9 -- 62
2020-09-09 01:00:00 23.5 21 Este 41 Sudeste 0 1014.1 -- 62
2020-09-09 00:00:00 23.7 22 Este 46 Este 0 1014.3 -- 67
2020-09-08 23:00:00 23.9 23 Este 48 Sudeste 0 1014.2 -- 68
2020-09-08 22:00:00 24.5 22 Este 50 Sudeste 0 1013.5 -- 61
2020-09-08 21:00:00 25.2 22 Este 53 Sudeste 0 1013.3 -- 58
2020-09-08 20:00:00 26.2 24 Este 53 Sudeste 0 1012.8 -- 57
2020-09-08 19:00:00 27.5 28 Este 53 Sudeste 0 1012.9 -- 55
2020-09-08 18:00:00 28.9 24 Este 56 Sudeste 0 1012.7 -- 52
2020-09-08 17:00:00 29.9 26 Este 50 Este 0 1012.8 -- 49
2020-09-08 16:00:00 30.4 23 Este 45 Sudeste 0 1013.1 -- 48
2020-09-08 15:00:00 31.1 23 Este 51 Sudeste 0 1013.4 -- 47
2020-09-08 14:00:00 31.2 21 Este 45 Sudeste 0 1013.6 -- 48
2020-09-08 13:00:00 30.1 22 Este 48 Sudeste 0 1013.7 -- 50
2020-09-08 12:00:00 29.7 19 Este 43 Este 0 1013.9 -- 53
2020-09-08 11:00:00 27.6 20 Este 46 Este 0 1013.5 -- 59
2020-09-08 10:00:00 26.1 22 Este 48 Este 0 1013.1 -- 67
2020-09-08 09:00:00 24.2 23 Este 44 Sudeste 0 1012.6 -- 73
2020-09-08 08:00:00 23.6 17 Este 43 Este 0 1012.1 -- 74
2020-09-08 07:00:00 23.5 16 Este 38 Sudeste 0 1011.8 -- 74
2020-09-08 06:00:00 23.5 18 Este 40 Sudeste 0 1011.8 -- 73
2020-09-08 05:00:00 23.7 18 Sudeste 39 Sudeste 0 1011.9 -- 73
2020-09-08 04:00:00 23.8 16 Sudeste 33 Sudeste 0 1011.9 -- 73
2020-09-08 03:00:00 23.8 15 Sudeste 31 Sudeste 0 1012.5 -- 77
2020-09-08 02:00:00 23.6 14 Sudeste 24 Este 0 1012.7 -- 70
2020-09-08 01:00:00 22.9 13 Sudeste 23 Sudeste 0 1012.7 -- 74
2020-09-08 00:00:00 23.6 8 Sudeste 14 Sudeste 0 1012.1 -- 78
2020-09-07 23:00:00 23.2 2 Este 9 Noroeste 0 1011.9 -- 85
2020-09-07 22:00:00 23.7 8 Noroeste 17 Oeste 0 1011.5 -- 87
2020-09-07 21:00:00 23.4 11 Noroeste 17 Oeste 0 1011.1 -- 87
2020-09-07 20:00:00 24.3 9 Oeste 21 Oeste 0 1010.7 -- 82
2020-09-07 19:00:00 25.4 11 Oeste 22 Oeste 0 1010.6 -- 71
2020-09-07 18:00:00 25.1 12 Oeste 26 Oeste 0 1010.5 -- 72
2020-09-07 17:00:00 25.5 14 Oeste 29 Oeste 0 1010.7 -- 68
2020-09-07 16:00:00 25.8 17 Oeste 26 Noroeste 0 1011.3 -- 68
2020-09-07 15:00:00 26.9 14 Oeste 22 Oeste 0 1011.8 -- 64
2020-09-07 14:00:00 27.8 10 Oeste 18 Oeste 0 1011.8 -- 61
2020-09-07 13:00:00 27.8 8 Noroeste 14 Noroeste 0 1012.2 -- 62
2020-09-07 12:00:00 27.1 8 Noroeste 13 Noroeste 0 1012.4 -- 60
2020-09-07 11:00:00 27.8 4 Este 11 Este 0 1012.2 -- 57
2020-09-07 10:00:00 25.5 4 Este 13 Este 0 1011.8 -- 66
2020-09-07 09:00:00 22.5 2 Este 6 Este 0 1011.5 -- 72
2020-09-07 08:00:00 22.2 4 Este 9 Este 0 1011.3 -- 72
2020-09-07 07:00:00 22.5 6 Este 14 Este 0 1010.8 -- 71
2020-09-07 06:00:00 22.7 8 Este 17 Este 0 1010.6 -- 71
2020-09-07 05:00:00 23 10 Este 25 Este 0 1010.9 -- 70
2020-09-07 04:00:00 23.2 16 Este 26 Este 0 1011.2 -- 68
2020-09-07 03:00:00 23.7 13 Este 30 Este 0 1011.5 -- 65
2020-09-07 02:00:00 24 15 Este 31 Sudeste 0 1011.3 -- 65
2020-09-07 01:00:00 24.2 13 Este 28 Este 0 1011.3 -- 65
2020-09-07 00:00:00 24.6 12 Este 29 Sudeste 0 1010.8 -- 62
2020-09-06 23:00:00 25 15 Este 41 Sudeste 0 1010.6 -- 58
2020-09-06 22:00:00 25.6 15 Sudeste 33 Sudeste 0 1010.1 -- 55
2020-09-06 21:00:00 26.8 14 Este 40 Sudeste 0 1009.3 -- 49
2020-09-06 20:00:00 28.9 20 Este 38 Sudeste 0 1009.1 -- 45
2020-09-06 19:00:00 30.8 18 Sudeste 39 Sudeste 0 1009.1 -- 42
2020-09-06 18:00:00 32.1 17 Este 38 Sudeste 0 1009.3 -- 39
2020-09-06 17:00:00 32.9 17 Este 40 Sudeste 0 1009.6 -- 40
2020-09-06 16:00:00 33.3 20 Este 39 Este 0 1010.1 -- 40
2020-09-06 15:00:00 32.6 19 Este 40 Sudeste 0 1010.6 -- 42
2020-09-06 14:00:00 31.8 19 Este 40 Sudeste 0 1010.9 -- 42
2020-09-06 13:00:00 31.2 19 Este 40 Sudeste 0 1011.1 -- 45
2020-09-06 12:00:00 29.3 21 Este 39 Este 0 1011.2 -- 50
2020-09-06 11:00:00 27.3 21 Este 45 Este 0 1010.7 -- 55
2020-09-06 10:00:00 25.4 21 Este 39 Este 0 1010.6 -- 62
2020-09-06 09:00:00 23.2 19 Este 36 Este 0 1010.2 -- 69
2020-09-06 08:00:00 22.8 19 Este 40 Este 0 1010 -- 69
2020-09-06 07:00:00 23.1 17 Este 37 Este 0 1009.6 -- 65
2020-09-06 06:00:00 23.4 17 Este 38 Este 0 1009.6 -- 60
2020-09-06 05:00:00 23.7 19 Este 39 Este 0 1009.9 -- 56
2020-09-06 04:00:00 24 17 Este 41 Este 0 1010.1 -- 59
2020-09-06 03:00:00 24 22 Este 41 Este 0 1010.1 -- 59
2020-09-06 02:00:00 24 21 Este 48 Sudeste 0 1010.5 -- 61
2020-09-06 01:00:00 24.2 24 Este 50 Sudeste 0 1010.6 -- 62
2020-09-06 00:00:00 24.2 23 Este 51 Este 0 1010.8 -- 62
2020-09-05 23:00:00 24.4 23 Este 46 Este 0 1010.7 -- 57
2020-09-05 22:00:00 25.1 22 Este 54 Sudeste 0 1010.4 -- 54
2020-09-05 21:00:00 26.2 20 Este 42 Sudeste 0 1010 -- 49
2020-09-05 20:00:00 28.7 23 Este 46 Este 0 1009.6 -- 42
2020-09-05 19:00:00 30.7 19 Este 39 Sudeste 0 1009.8 -- 39
2020-09-05 18:00:00 32.3 19 Este 35 Este 0 1010.4 -- 36
2020-09-05 17:00:00 33.1 21 Este 40 Este 0 1011.1 -- 34
2020-09-05 16:00:00 33.2 17 Este 38 Este 0 1012 -- 36
2020-09-05 15:00:00 32.5 19 Este 41 Sudeste 0 1012.7 -- 38
2020-09-05 14:00:00 31.7 21 Este 39 Sudeste 0 1013 -- 42
2020-09-05 13:00:00 30.5 22 Este 42 Este 0 1013.8 -- 46
2020-09-05 12:00:00 28.6 23 Este 49 Este 0 1014.1 -- 52
2020-09-05 11:00:00 27.2 23 Este 44 Este 0 1014 -- 56
2020-09-05 10:00:00 25.4 18 Este 43 Este 0 1014 -- 64
2020-09-05 09:00:00 23.5 16 Este 32 Sudeste 0 1014 -- 70
2020-09-05 08:00:00 23.1 15 Este 33 Este 0 1013.6 -- 68
2020-09-05 07:00:00 23.2 18 Este 35 Este 0 1013.5 -- 67
2020-09-05 06:00:00 23.2 18 Este 32 Sudeste 0 1013.4 -- 65
2020-09-05 05:00:00 23.4 17 Este 33 Sudeste 0 1013.7 -- 66
2020-09-05 04:00:00 23.4 16 Este 47 Este 0 1014 -- 68
2020-09-05 03:00:00 23.4 20 Este 45 Sudeste 0 1014.4 -- 71
2020-09-05 02:00:00 23.5 19 Este 43 Este 0 1014.9 -- 71
2020-09-05 01:00:00 23.7 20 Este 48 Este 0 1014.9 -- 71
2020-09-05 00:00:00 24.2 19 Este 45 Este 0 1014.9 -- 68
2020-09-04 23:00:00 24.4 22 Este 46 Sudeste 0 1014.6 -- 66
2020-09-04 22:00:00 24.7 22 Este 51 Este 0 1014.5 -- 65
2020-09-04 21:00:00 25.7 23 Este 50 Sudeste 0 1013.9 -- 58
2020-09-04 20:00:00 27.5 27 Este 52 Este 0 1013.9 -- 50
2020-09-04 19:00:00 28.7 26 Este 55 Sudeste 0 1013.9 -- 48
2020-09-04 18:00:00 29.8 28 Este 52 Sudeste 0 1014.2 -- 46
2020-09-04 17:00:00 30.7 24 Este 55 Este 0 1014.3 -- 45
2020-09-04 16:00:00 30.6 26 Este 50 Este 0 1014.8 -- 45
2020-09-04 15:00:00 31.1 28 Este 55 Este 0 1015.4 -- 44
2020-09-04 14:00:00 31.2 24 Este 56 Este 0 1015.6 -- 45
2020-09-04 13:00:00 29.7 26 Este 56 Este 0 1016 -- 47
2020-09-04 12:00:00 28.7 26 Este 50 Este 0 1016.4 -- 52
2020-09-04 11:00:00 27.2 22 Este 54 Este 0 1016 -- 58
2020-09-04 10:00:00 25.6 28 Este 53 Nordeste 0 1015.1 -- 64
2020-09-04 09:00:00 23.9 23 Este 54 Este 0 1014.5 -- 70
2020-09-04 08:00:00 23.3 28 Este 56 Este 0 1014 -- 70
2020-09-04 07:00:00 23.5 24 Este 57 Sudeste 0 1013.5 -- 69
2020-09-04 06:00:00 23.6 26 Este 59 Sudeste 0 1012.9 -- 69
2020-09-04 05:00:00 23.6 25 Este 57 Sudeste 0 1012.7 -- 68
2020-09-04 04:00:00 23.8 28 Este 59 Sudeste 0 1012.9 -- 68
2020-09-04 03:00:00 23.9 26 Este 54 Este 0 1013.3 -- 68
2020-09-04 02:00:00 23.9 22 Este 50 Sudeste 0 1013.8 -- 65
2020-09-04 01:00:00 24.2 22 Este 49 Sudeste 0 1014.1 -- 58
2020-09-04 00:00:00 24.8 23 Este 51 Sudeste 0 1014.3 -- 49
2020-09-03 23:00:00 25.2 20 Este 44 Sudeste 0 1014.2 -- 45
2020-09-03 22:00:00 25.3 22 Este 47 Este 0 1013.9 -- 47
2020-09-03 21:00:00 26.4 23 Este 58 Sudeste 0 1013.3 -- 42
2020-09-03 20:00:00 28.3 27 Este 53 Este 0 1013 -- 38
2020-09-03 19:00:00 29.9 31 Este 55 Este 0 1012.7 -- 33
2020-09-03 18:00:00 30.8 31 Este 62 Este 0 1012.8 -- 33
2020-09-03 17:00:00 31.6 31 Este 63 Este 0 1012.8 -- 32
2020-09-03 16:00:00 31.3 29 Este 59 Este 0 1013 -- 34
2020-09-03 15:00:00 31.2 31 Este 59 Este 0 1013.6 -- 38
2020-09-03 14:00:00 30.8 28 Este 58 Este 0 1014 -- 40
2020-09-03 13:00:00 30 29 Este 60 Este 0 1014 -- 42
2020-09-03 12:00:00 28.9 33 Este 60 Este 0 1013.9 -- 45
2020-09-03 11:00:00 27.7 25 Este 52 Este 0 1013.5 -- 51
2020-09-03 10:00:00 25.9 20 Este 44 Este 0 1013.5 -- 58
2020-09-03 09:00:00 23.6 14 Este 31 Este 0 1013.3 -- 65
2020-09-03 08:00:00 22.7 17 Este 43 Nordeste 0 1012.7 -- 69
2020-09-03 07:00:00 22.9 12 Este 26 Este 0 1012.6 -- 69
2020-09-03 06:00:00 23.1 15 Este 37 Este 0 1012.5 -- 61
2020-09-03 05:00:00 23.5 16 Este 32 Este 0 1012.2 -- 61
2020-09-03 04:00:00 23.3 11 Este 30 Sudeste 0 1012.3 -- 64
2020-09-03 03:00:00 23.2 13 Este 31 Sudeste 0 1012.1 -- 65
2020-09-03 02:00:00 22.9 9 Este 24 Sudeste 0 1012.2 -- 62
2020-09-03 01:00:00 23.3 10 Este 29 Este 0 1012.2 -- 53
2020-09-03 00:00:00 23.8 15 Este 31 Sudeste 0 1012.1 -- 51
2020-09-02 23:00:00 24 13 Este 26 Este 0 1012.1 -- 50
2020-09-02 22:00:00 24.8 13 Este 30 Sudeste 0 1011.7 -- 50
2020-09-02 21:00:00 23.5 0 Calma 9 Noroeste 0 1011.4 -- 75
2020-09-02 20:00:00 24.3 6 Noroeste 14 Oeste 0 1011.1 -- 72
2020-09-02 19:00:00 24 9 Oeste 16 Oeste 0 1010.6 -- 72
2020-09-02 18:00:00 24.3 10 Oeste 21 Oeste 0 1010.4 -- 72
2020-09-02 17:00:00 24.2 14 Oeste 24 Oeste 0 1010.4 -- 74
2020-09-02 16:00:00 25.2 14 Oeste 26 Oeste 0 1010.4 -- 65
2020-09-02 15:00:00 24.8 12 Oeste 22 Sudoeste 0 1010.9 -- 69
2020-09-02 14:00:00 25.1 12 Sudoeste 24 Sur 0 1010.9 -- 67
2020-09-02 13:00:00 24.8 6 Sur 23 Sudeste 0 1011.2 -- 70
2020-09-02 12:00:00 23.6 10 Sur 25 Sur 0 1011.2 -- 76
2020-09-02 11:00:00 22.1 13 Sur 24 Sur 0 1010.9 -- 86
2020-09-02 10:00:00 20.5 8 Sudeste 22 Sudeste 0 1010 -- 92
2020-09-02 09:00:00 19.6 8 Sudeste 17 Sudeste 0 1009.6 -- 92
2020-09-02 08:00:00 18.5 7 Sudeste 15 Sudeste 0 1009.2 -- 87
2020-09-02 07:00:00 19 4 Sudeste 9 Este 0 1008.8 -- 86
2020-09-02 06:00:00 19.1 4 Sudeste 13 Sudeste 0 1008.5 -- 86
2020-09-02 05:00:00 19.4 6 Sudeste 12 Sudeste 0 1008.5 -- 88
2020-09-02 04:00:00 19.3 6 Sudeste 10 Sudeste 0 1008.7 -- 88
2020-09-02 03:00:00 19.7 6 Sudeste 14 Sudeste 0 1009 -- 88
2020-09-02 02:00:00 20.5 6 Sudeste 11 Sudeste 0 1009 -- 89
2020-09-02 01:00:00 21.2 4 Sudeste 10 Sur 0 1009.3 -- 89
2020-09-02 00:00:00 21.8 4 Sur 12 Sudoeste 0 1009.4 -- 86
2020-09-01 23:00:00 22.4 5 Sudoeste 13 Sudoeste 0 1009.3 -- 83
2020-09-01 22:00:00 22.6 6 Sudoeste 15 Sudoeste 0 1009.1 -- 74
2020-09-01 21:00:00 23.3 7 Oeste 18 Oeste 0 1008.5 -- 62
2020-09-01 20:00:00 24.8 9 Oeste 20 Oeste 0 1008.4 -- 55
2020-09-01 19:00:00 25.4 14 Oeste 21 Oeste 0 1008.5 -- 54
2020-09-01 18:00:00 24.5 14 Oeste 23 Oeste 0 1008.5 -- 58
2020-09-01 17:00:00 24.9 15 Oeste 24 Oeste 0 1008.8 -- 56
2020-09-01 16:00:00 25.3 15 Oeste 24 Oeste 0 1009 -- 54
2020-09-01 15:00:00 24.5 14 Oeste 23 Oeste 0 1009.7 -- 57
2020-09-01 14:00:00 25.2 12 Oeste 23 Oeste 0 1009.9 -- 58
2020-09-01 13:00:00 24.8 10 Oeste 16 Noroeste 0 1010.2 -- 62
2020-09-01 12:00:00 26.2 7 Noroeste 14 Oeste 0 1010.3 -- 47
2020-09-01 11:00:00 27.4 9 Este 19 Este 0 1010.1 -- 43
2020-09-01 10:00:00 23.4 8 Nordeste 17 Nordeste 0 1010.3 -- 54
2020-09-01 09:00:00 20.8 7 Nordeste 16 Nordeste 0 1010.1 -- 59
2020-09-01 08:00:00 20.7 8 Nordeste 22 Este 0 1009.9 -- 56
2020-09-01 07:00:00 21.8 12 Este 21 Este 0 1009.4 -- 54
2020-09-01 06:00:00 21.9 11 Este 24 Este 0 1009.4 -- 56
2020-09-01 05:00:00 22.4 14 Este 23 Este 0 1009.4 -- 55
2020-09-01 04:00:00 22.8 14 Este 23 Este 0 1009.7 -- 48
2020-09-01 03:00:00 22.9 13 Este 30 Este 0 1010.1 -- 51
2020-09-01 02:00:00 23.4 15 Este 35 Este 0 1010.5 -- 53
2020-09-01 01:00:00 23.4 19 Este 42 Este 0 1010.8 -- 57
2020-09-01 00:00:00 23.5 19 Este 40 Sudeste 0 1010.9 -- 58
2020-08-31 23:00:00 24 14 Este 41 Sudeste 0 1010.5 -- 54
2020-08-31 22:00:00 25.1 15 Este 37 Sudeste 0 1009.9 -- 47
2020-08-31 21:00:00 26.6 14 Este 38 Este 0 1009.4 -- 40
2020-08-31 20:00:00 28.6 19 Este 50 Este 0 1009 -- 37
2020-08-31 19:00:00 30 24 Este 47 Sudeste 0 1009.1 -- 36
2020-08-31 18:00:00 30.9 22 Este 49 Sudeste 0 1009.5 -- 37
2020-08-31 17:00:00 31.2 25 Este 47 Sudeste 0 1009.7 -- 37
2020-08-31 16:00:00 31.5 25 Este 47 Este 0 1010.4 -- 37
2020-08-31 15:00:00 31.4 21 Este 48 Este 0 1011.2 -- 40
2020-08-31 14:00:00 30.9 22 Este 48 Este 0 1011.6 -- 41
2020-08-31 13:00:00 29.9 21 Este 49 Este 0 1012.3 -- 43
2020-08-31 12:00:00 28.9 23 Este 54 Este 0 1012.1 -- 45
2020-08-31 11:00:00 27.7 18 Este 47 Este 0 1012 -- 49
2020-08-31 10:00:00 25.4 22 Este 45 Este 0 1011.3 -- 57
2020-08-31 09:00:00 23 17 Este 35 Este 0 1010.9 -- 71
2020-08-31 08:00:00 22.2 16 Este 29 Este 0 1010.6 -- 74
2020-08-31 07:00:00 21.9 17 Este 29 Este 0 1010.2 -- 76
2020-08-31 06:00:00 21.9 14 Este 30 Este 0 1010.3 -- 75
2020-08-31 05:00:00 22.1 14 Este 30 Este 0 1010.3 -- 74
2020-08-31 04:00:00 22.4 14 Este 32 Este 0 1010.3 -- 73
2020-08-31 03:00:00 22.5 13 Este 27 Este 0 1010.2 -- 73
2020-08-31 02:00:00 22.7 12 Este 25 Sudeste 0 1010.4 -- 72
2020-08-31 01:00:00 22.9 10 Sudeste 17 Sudeste 0 1010.6 -- 67
2020-08-31 00:00:00 23.4 9 Este 18 Sudeste 0 1010.3 -- 64
2020-08-30 23:00:00 23.6 6 Este 12 Este 0 1010.2 -- 68
2020-08-30 22:00:00 23.6 0 Calma 12 Oeste 0 1009.2 -- 71
2020-08-30 21:00:00 24.2 8 Sudoeste 18 Oeste 0 1008.2 -- 65
2020-08-30 20:00:00 25.8 10 Oeste 24 Sudoeste 0 1007.6 -- 53
2020-08-30 19:00:00 26.8 12 Sudoeste 24 Sudoeste 0 1007.1 -- 45
2020-08-30 18:00:00 28.9 12 Sudoeste 22 Sudoeste 0 1007 -- 37
2020-08-30 17:00:00 27.9 14 Noroeste 22 Noroeste 0 1006.7 -- 42
2020-08-30 16:00:00 29.7 13 Noroeste 22 Noroeste 0 1006.7 -- 35
2020-08-30 15:00:00 29.3 13 Noroeste 22 Noroeste 0 1007.1 -- 34
2020-08-30 14:00:00 28.9 8 Noroeste 14 Noroeste 0 1007.3 -- 31
2020-08-30 13:00:00 27.5 6 Nordeste 14 Norte 0 1007.5 -- 33
2020-08-30 12:00:00 22.6 8 Nordeste 17 Nordeste 0 1007.3 -- 40
2020-08-30 11:00:00 21.7 4 Nordeste 14 Norte 0 1007.4 -- 44
2020-08-30 10:00:00 20.5 4 Nordeste 14 Norte 0 1006.9 -- 51
2020-08-30 09:00:00 19.4 4 Nordeste 14 Nordeste 0 1006.7 -- 53
2020-08-30 08:00:00 18.3 4 Nordeste 34 Sudeste 0 1006.3 -- 56
2020-08-30 07:00:00 19.2 4 Norte 12 Norte 0 1005.8 -- 56
2020-08-30 06:00:00 19.6 5 Norte 10 Norte 0 1006 -- 60
2020-08-30 05:00:00 20 4 Norte 8 Norte 0 1006.3 -- 82
2020-08-30 04:00:00 19.6 4 Sudoeste 11 Oeste 0 1006.6 -- 80
2020-08-30 03:00:00 19.1 2 Este 9 Sudeste 0 1006.5 -- 77
2020-08-30 02:00:00 19.9 5 Este 15 Sudeste 0 1006.7 -- 72
2020-08-30 01:00:00 20.5 9 Sudeste 18 Sudeste 0 1006.8 -- 70
2020-08-30 00:00:00 22 7 Este 18 Noroeste 0 1006.4 -- 65
2020-08-29 23:00:00 23.4 10 Noroeste 23 Noroeste 0 1005.7 -- 62
2020-08-29 22:00:00 22.8 10 Noroeste 17 Noroeste 0 1005 -- 63
2020-08-29 21:00:00 22.5 4 Oeste 14 Oeste 0 1004.5 -- 63
2020-08-29 20:00:00 23.2 13 Oeste 28 Sudoeste 0 1004.5 -- 62
2020-08-29 19:00:00 23.6 17 Oeste 31 Oeste 0 1004.6 -- 56
2020-08-29 18:00:00 24 15 Oeste 29 Oeste 0 1004.7 -- 52
2020-08-29 17:00:00 23.2 17 Oeste 32 Oeste 0 1005 -- 55
2020-08-29 16:00:00 23.2 19 Oeste 31 Oeste 0 1005.5 -- 52
2020-08-29 15:00:00 22.2 19 Noroeste 31 Oeste 0 1006 -- 52
2020-08-29 14:00:00 22.6 20 Noroeste 30 Noroeste 0 1006.1 -- 53
2020-08-29 13:00:00 21.5 18 Oeste 31 Noroeste 0 1006.4 -- 57
2020-08-29 12:00:00 21 17 Noroeste 28 Noroeste 0 1006.6 -- 59
2020-08-29 11:00:00 20.8 12 Noroeste 23 Noroeste 0 1006.3 -- 58
2020-08-29 10:00:00 20 10 Noroeste 23 Norte 0 1006.1 -- 62
2020-08-29 09:00:00 19.1 10 Noroeste 28 Norte 0 1005.9 -- 65
2020-08-29 08:00:00 18.9 13 Noroeste 27 Noroeste 0 1005.6 -- 65
2020-08-29 07:00:00 19.3 13 Noroeste 34 Noroeste 0 1005.1 -- 63
2020-08-29 06:00:00 19.9 22 Noroeste 41 Noroeste 0 1004.8 -- 60
2020-08-29 05:00:00 20.5 23 Noroeste 41 Norte 0 1004.7 -- 58
2020-08-29 04:00:00 21.5 23 Noroeste 37 Noroeste 0 1005 -- 56
2020-08-29 03:00:00 22.8 20 Noroeste 40 Noroeste 0 1005.3 -- 53
2020-08-29 02:00:00 24.1 16 Noroeste 32 Noroeste 0 1005.5 -- 50
2020-08-29 01:00:00 24.9 15 Noroeste 30 Noroeste 0 1005.6 -- 53
2020-08-29 00:00:00 25.4 17 Noroeste 30 Noroeste 0 1005.7 -- 53
2020-08-28 23:00:00 24.1 11 Oeste 27 Oeste 0 1005.7 -- 73
2020-08-28 22:00:00 23.7 17 Oeste 31 Oeste 0 1005.3 -- 80
2020-08-28 21:00:00 24.1 17 Oeste 35 Oeste 0 1005.1 -- 78
2020-08-28 20:00:00 24.8 22 Oeste 37 Oeste 0 1005.2 -- 76
2020-08-28 19:00:00 25.9 19 Oeste 36 Oeste 0 1005.9 -- 69
2020-08-28 18:00:00 26.5 22 Oeste 39 Oeste 0 1006.2 -- 67
2020-08-28 17:00:00 25.8 20 Oeste 36 Oeste 0 1006.9 -- 66
2020-08-28 16:00:00 25.3 21 Oeste 37 Oeste 0 1007.6 -- 65
2020-08-28 15:00:00 25.2 22 Oeste 35 Oeste 0 1008.3 -- 67
2020-08-28 14:00:00 24 18 Oeste 33 Oeste 0 1008.9 -- 72
2020-08-28 13:00:00 23.4 20 Oeste 33 Oeste 0 1009.5 -- 76
2020-08-28 12:00:00 22.8 19 Oeste 29 Oeste 0 1009.7 -- 79
2020-08-28 11:00:00 22.4 17 Oeste 28 Oeste 0 1009.4 -- 80
2020-08-28 10:00:00 22.2 14 Oeste 26 Oeste 0 1009 -- 80
2020-08-28 09:00:00 22 14 Noroeste 24 Noroeste 0 1008.8 -- 82
2020-08-28 08:00:00 22 13 Noroeste 26 Noroeste 0 1008.6 -- 82
2020-08-28 07:00:00 22.6 14 Noroeste 25 Noroeste 0 1008.3 -- 80
2020-08-28 06:00:00 23.5 13 Noroeste 21 Noroeste 0 1008.2 -- 78
2020-08-28 05:00:00 22.7 3 Sudoeste 7 Sudoeste 0 1008.5 -- 90
2020-08-28 04:00:00 22.7 2 Sur 14 Sur 0 1008.8 -- 89
2020-08-28 03:00:00 22.9 6 Sudeste 13 Sudeste 0 1009.3 -- 88
2020-08-28 02:00:00 23.2 4 Sudeste 13 Sur 0 1009.9 -- 87
2020-08-28 01:00:00 24 5 Sudeste 13 Sudeste 0 1010.1 -- 84
2020-08-28 00:00:00 24.6 5 Sudoeste 12 Sudoeste 0 1010.3 -- 78
2020-08-27 23:00:00 25 6 Oeste 12 Oeste 0 1010.6 -- 79
2020-08-27 22:00:00 25.1 8 Oeste 21 Sudoeste 0 1010.2 -- 78
2020-08-27 21:00:00 26.4 14 Oeste 23 Oeste 0 1010.3 -- 71
2020-08-27 20:00:00 27.5 11 Oeste 25 Oeste 0 1010.2 -- 68
2020-08-27 19:00:00 28.3 14 Oeste 24 Oeste 0 1010.7 -- 61
2020-08-27 18:00:00 28.5 15 Oeste 26 Oeste 0 1011.2 -- 59
2020-08-27 17:00:00 30.8 13 Oeste 18 Oeste 0 1011.7 -- 44
2020-08-27 16:00:00 27.7 13 Oeste 27 Oeste 0 1012.2 -- 65
2020-08-27 15:00:00 28.2 19 Oeste 30 Oeste 0 1013 -- 60
2020-08-27 14:00:00 28.8 10 Oeste 17 Oeste 0 1013.2 -- 61
2020-08-27 13:00:00 27 12 Noroeste 19 Oeste 0 1013.7 -- 70
2020-08-27 12:00:00 26.2 10 Oeste 15 Oeste 0 1013.8 -- 70
2020-08-27 11:00:00 24.9 7 Oeste 16 Noroeste 0 1013.6 -- 83
2020-08-27 10:00:00 24.8 5 Noroeste 13 Noroeste 0 1013.1 -- 85
2020-08-27 09:00:00 24.2 4 Oeste 7 Oeste 0 1012.9 -- 83
2020-08-27 08:00:00 22.9 3 Este 10 Sur 0 1012.6 -- 78
2020-08-27 07:00:00 23.1 4 Sudeste 11 Sur 0 1012.7 -- 75
2020-08-27 06:00:00 23.7 0 Calma 10 Sudeste 0 1012.8 -- 72
2020-08-27 05:00:00 24.4 0 Calma 18 Sudeste 0 1013 -- 69
2020-08-27 04:00:00 25 12 Sudeste 18 Este 0 1013.1 -- 62
2020-08-27 03:00:00 25.1 7 Este 13 Este 0 1013.6 -- 63
2020-08-27 02:00:00 26.4 4 Nordeste 7 Nordeste 0 1014 -- 50
2020-08-27 01:00:00 25.8 3 Norte 7 Nordeste 0 1014 -- 56
2020-08-27 00:00:00 25.7 2 Norte 9 Noroeste 0 1014 -- 77
2020-08-26 23:00:00 25.5 7 Oeste 10 Oeste 0 1013.8 -- 81
2020-08-26 22:00:00 26.5 3 Sudoeste 5 Oeste 0 1013 -- 74
2020-08-26 21:00:00 26.6 4 Oeste 13 Oeste 0 1012.6 -- 74
2020-08-26 20:00:00 27.1 10 Oeste 18 Oeste 0 1012.5 -- 73
2020-08-26 19:00:00 28.2 12 Oeste 20 Oeste 0 1012.8 -- 65
2020-08-26 18:00:00 27.6 11 Oeste 22 Oeste 0 1012.9 -- 67
2020-08-26 17:00:00 27.7 11 Oeste 23 Oeste 0 1013.2 -- 68
2020-08-26 16:00:00 28.2 15 Oeste 24 Sudoeste 0 1013.5 -- 68
2020-08-26 15:00:00 26.9 13 Oeste 22 Oeste 0 1013.8 -- 74
2020-08-26 14:00:00 27.5 14 Oeste 23 Oeste 0 1014.2 -- 68
2020-08-26 13:00:00 26.9 11 Oeste 17 Oeste 0 1014.4 -- 70
2020-08-26 12:00:00 27.4 9 Oeste 14 Oeste 0 1014.5 -- 67
2020-08-26 11:00:00 29.9 4 Sudeste 15 Sudeste 0 1013.9 -- 56
2020-08-26 10:00:00 27 10 Este 19 Este 0 1013 -- 71
2020-08-26 09:00:00 22.9 4 Este 12 Este 0 1013 -- 87
2020-08-26 08:00:00 22 7 Sudeste 12 Sudeste 0 1012.8 -- 87
2020-08-26 07:00:00 22.6 4 Este 6 Sudeste 0 1012.5 -- 85
2020-08-26 06:00:00 22.5 3 Nordeste 13 Sudeste 0 1012 -- 84
2020-08-26 05:00:00 22.8 5 Este 9 Este 0 1012.1 -- 83
2020-08-26 04:00:00 23.4 0 Calma 8 Sudeste 0 1012.4 -- 80
2020-08-26 03:00:00 24.3 4 Este 10 Sudeste 0 1012.5 -- 79
2020-08-26 02:00:00 24.8 0 Calma 5 Norte 0 1013.1 -- 81
2020-08-26 01:00:00 24.8 2 Oeste 8 Oeste 0 1013 -- 83
2020-08-26 00:00:00 25.3 4 Oeste 9 Noroeste 0 1012.8 -- 80